sensor_id;sensor_type;location;lat;lon;timestamp;P1;durP1;ratioP1;P2;durP2;ratioP2
48629;SDS011;34426;52.180;4.462;2023-04-06T00:00:14;51.22;;;28.70;;
48629;SDS011;34426;52.180;4.462;2023-04-06T00:02:39;45.28;;;27.98;;
48629;SDS011;34426;52.180;4.462;2023-04-06T00:05:05;43.08;;;25.77;;
48629;SDS011;34426;52.180;4.462;2023-04-06T00:07:31;44.55;;;26.88;;
48629;SDS011;34426;52.180;4.462;2023-04-06T00:09:56;39.38;;;25.42;;
48629;SDS011;34426;52.180;4.462;2023-04-06T00:12:23;41.25;;;25.13;;
48629;SDS011;34426;52.180;4.462;2023-04-06T00:14:49;46.13;;;26.15;;
48629;SDS011;34426;52.180;4.462;2023-04-06T00:17:17;42.63;;;24.13;;
48629;SDS011;34426;52.180;4.462;2023-04-06T00:19:42;40.25;;;24.77;;
48629;SDS011;34426;52.180;4.462;2023-04-06T00:22:08;43.50;;;24.60;;
48629;SDS011;34426;52.180;4.462;2023-04-06T00:24:33;38.38;;;22.65;;
48629;SDS011;34426;52.180;4.462;2023-04-06T00:26:59;42.63;;;24.42;;
48629;SDS011;34426;52.180;4.462;2023-04-06T00:29:25;38.15;;;22.90;;
48629;SDS011;34426;52.180;4.462;2023-04-06T00:31:51;38.33;;;22.70;;
48629;SDS011;34426;52.180;4.462;2023-04-06T00:34:16;42.97;;;22.25;;
48629;SDS011;34426;52.180;4.462;2023-04-06T00:36:42;40.50;;;22.13;;
48629;SDS011;34426;52.180;4.462;2023-04-06T00:39:07;36.58;;;20.77;;
48629;SDS011;34426;52.180;4.462;2023-04-06T00:41:33;38.08;;;21.90;;
48629;SDS011;34426;52.180;4.462;2023-04-06T00:43:58;36.00;;;21.58;;
48629;SDS011;34426;52.180;4.462;2023-04-06T00:46:25;36.70;;;22.25;;
48629;SDS011;34426;52.180;4.462;2023-04-06T00:48:51;32.65;;;20.23;;
48629;SDS011;34426;52.180;4.462;2023-04-06T00:51:16;31.58;;;19.13;;
48629;SDS011;34426;52.180;4.462;2023-04-06T00:53:42;32.25;;;19.63;;
48629;SDS011;34426;52.180;4.462;2023-04-06T00:56:07;30.60;;;19.25;;
48629;SDS011;34426;52.180;4.462;2023-04-06T00:58:32;29.65;;;18.80;;
48629;SDS011;34426;52.180;4.462;2023-04-06T01:00:58;27.52;;;17.70;;
48629;SDS011;34426;52.180;4.462;2023-04-06T01:03:25;27.13;;;17.52;;
48629;SDS011;34426;52.180;4.462;2023-04-06T01:05:51;29.67;;;17.63;;
48629;SDS011;34426;52.180;4.462;2023-04-06T01:08:16;29.48;;;17.13;;
48629;SDS011;34426;52.180;4.462;2023-04-06T01:10:42;29.77;;;17.92;;
48629;SDS011;34426;52.180;4.462;2023-04-06T01:13:07;24.52;;;16.15;;
48629;SDS011;34426;52.180;4.462;2023-04-06T01:15:33;27.42;;;16.02;;
48629;SDS011;34426;52.180;4.462;2023-04-06T01:18:00;23.95;;;15.85;;
48629;SDS011;34426;52.180;4.462;2023-04-06T01:20:27;25.08;;;15.85;;
48629;SDS011;34426;52.180;4.462;2023-04-06T01:22:54;24.77;;;16.23;;
48629;SDS011;34426;52.180;4.462;2023-04-06T01:25:19;26.65;;;15.73;;
48629;SDS011;34426;52.180;4.462;2023-04-06T01:27:45;26.65;;;15.93;;
48629;SDS011;34426;52.180;4.462;2023-04-06T01:30:10;23.33;;;15.30;;
48629;SDS011;34426;52.180;4.462;2023-04-06T01:32:36;21.58;;;14.68;;
48629;SDS011;34426;52.180;4.462;2023-04-06T01:35:02;33.13;;;16.35;;
48629;SDS011;34426;52.180;4.462;2023-04-06T01:37:27;27.95;;;14.95;;
48629;SDS011;34426;52.180;4.462;2023-04-06T01:39:54;22.95;;;14.63;;
48629;SDS011;34426;52.180;4.462;2023-04-06T01:42:20;24.10;;;14.25;;
48629;SDS011;34426;52.180;4.462;2023-04-06T01:44:45;20.05;;;13.50;;
48629;SDS011;34426;52.180;4.462;2023-04-06T01:47:10;21.38;;;14.05;;
48629;SDS011;34426;52.180;4.462;2023-04-06T01:49:36;22.75;;;13.68;;
48629;SDS011;34426;52.180;4.462;2023-04-06T01:52:01;19.77;;;13.55;;
48629;SDS011;34426;52.180;4.462;2023-04-06T01:54:27;18.88;;;13.32;;
48629;SDS011;34426;52.180;4.462;2023-04-06T01:56:54;19.27;;;13.20;;
48629;SDS011;34426;52.180;4.462;2023-04-06T01:59:20;21.40;;;13.40;;
48629;SDS011;34426;52.180;4.462;2023-04-06T02:01:45;23.60;;;13.25;;
48629;SDS011;34426;52.180;4.462;2023-04-06T02:04:11;23.45;;;13.43;;
48629;SDS011;34426;52.180;4.462;2023-04-06T02:06:36;23.55;;;15.02;;
48629;SDS011;34426;52.180;4.462;2023-04-06T02:09:01;23.55;;;13.70;;
48629;SDS011;34426;52.180;4.462;2023-04-06T02:11:27;21.33;;;13.32;;
48629;SDS011;34426;52.180;4.462;2023-04-06T02:13:54;19.92;;;13.70;;
48629;SDS011;34426;52.180;4.462;2023-04-06T02:16:20;20.38;;;14.32;;
48629;SDS011;34426;52.180;4.462;2023-04-06T02:18:46;18.80;;;13.45;;
48629;SDS011;34426;52.180;4.462;2023-04-06T02:21:11;20.25;;;12.68;;
48629;SDS011;34426;52.180;4.462;2023-04-06T02:23:37;19.55;;;13.70;;
48629;SDS011;34426;52.180;4.462;2023-04-06T02:26:02;24.25;;;14.30;;
48629;SDS011;34426;52.180;4.462;2023-04-06T02:28:28;23.60;;;13.02;;
48629;SDS011;34426;52.180;4.462;2023-04-06T02:30:54;23.33;;;13.65;;
48629;SDS011;34426;52.180;4.462;2023-04-06T02:33:20;17.75;;;13.27;;
48629;SDS011;34426;52.180;4.462;2023-04-06T02:35:45;24.10;;;14.10;;
48629;SDS011;34426;52.180;4.462;2023-04-06T02:38:11;19.92;;;13.43;;
48629;SDS011;34426;52.180;4.462;2023-04-06T02:40:36;21.10;;;14.07;;
48629;SDS011;34426;52.180;4.462;2023-04-06T02:43:02;22.55;;;14.63;;
48629;SDS011;34426;52.180;4.462;2023-04-06T02:45:27;22.30;;;13.75;;
48629;SDS011;34426;52.180;4.462;2023-04-06T02:47:54;22.95;;;14.05;;
48629;SDS011;34426;52.180;4.462;2023-04-06T02:50:19;24.52;;;14.32;;
48629;SDS011;34426;52.180;4.462;2023-04-06T02:52:45;30.33;;;13.77;;
48629;SDS011;34426;52.180;4.462;2023-04-06T02:55:10;28.67;;;13.68;;
48629;SDS011;34426;52.180;4.462;2023-04-06T02:57:36;22.15;;;13.80;;
48629;SDS011;34426;52.180;4.462;2023-04-06T03:00:02;19.30;;;13.60;;
48629;SDS011;34426;52.180;4.462;2023-04-06T03:02:28;21.20;;;14.60;;
48629;SDS011;34426;52.180;4.462;2023-04-06T03:04:54;27.83;;;14.88;;
48629;SDS011;34426;52.180;4.462;2023-04-06T03:07:20;22.30;;;14.63;;
48629;SDS011;34426;52.180;4.462;2023-04-06T03:09:45;19.35;;;14.15;;
48629;SDS011;34426;52.180;4.462;2023-04-06T03:12:11;21.85;;;14.80;;
48629;SDS011;34426;52.180;4.462;2023-04-06T03:14:36;20.45;;;14.25;;
48629;SDS011;34426;52.180;4.462;2023-04-06T03:17:02;22.48;;;15.23;;
48629;SDS011;34426;52.180;4.462;2023-04-06T03:19:27;22.40;;;14.18;;
48629;SDS011;34426;52.180;4.462;2023-04-06T03:21:54;21.45;;;15.13;;
48629;SDS011;34426;52.180;4.462;2023-04-06T03:24:19;23.38;;;14.98;;
48629;SDS011;34426;52.180;4.462;2023-04-06T03:26:45;22.42;;;15.20;;
48629;SDS011;34426;52.180;4.462;2023-04-06T03:29:10;24.83;;;16.60;;
48629;SDS011;34426;52.180;4.462;2023-04-06T03:31:36;26.70;;;15.45;;
48629;SDS011;34426;52.180;4.462;2023-04-06T03:34:01;22.15;;;15.90;;
48629;SDS011;34426;52.180;4.462;2023-04-06T03:36:27;24.50;;;16.05;;
48629;SDS011;34426;52.180;4.462;2023-04-06T03:38:54;26.00;;;15.18;;
48629;SDS011;34426;52.180;4.462;2023-04-06T03:41:19;21.17;;;15.35;;
48629;SDS011;34426;52.180;4.462;2023-04-06T03:43:45;21.27;;;15.20;;
48629;SDS011;34426;52.180;4.462;2023-04-06T03:46:10;23.67;;;16.13;;
48629;SDS011;34426;52.180;4.462;2023-04-06T03:48:36;24.80;;;15.43;;
48629;SDS011;34426;52.180;4.462;2023-04-06T03:51:01;23.20;;;15.90;;
48629;SDS011;34426;52.180;4.462;2023-04-06T03:53:26;27.60;;;16.73;;
48629;SDS011;34426;52.180;4.462;2023-04-06T03:55:53;23.10;;;15.98;;
48629;SDS011;34426;52.180;4.462;2023-04-06T03:58:19;23.20;;;16.30;;
48629;SDS011;34426;52.180;4.462;2023-04-06T04:00:44;24.73;;;15.82;;
48629;SDS011;34426;52.180;4.462;2023-04-06T04:03:10;22.45;;;15.55;;
48629;SDS011;34426;52.180;4.462;2023-04-06T04:05:35;24.38;;;15.57;;
48629;SDS011;34426;52.180;4.462;2023-04-06T04:08:01;23.00;;;15.65;;
48629;SDS011;34426;52.180;4.462;2023-04-06T04:10:26;22.67;;;15.77;;
48629;SDS011;34426;52.180;4.462;2023-04-06T04:12:53;26.25;;;17.63;;
48629;SDS011;34426;52.180;4.462;2023-04-06T04:15:18;27.05;;;16.80;;
48629;SDS011;34426;52.180;4.462;2023-04-06T04:17:44;21.92;;;16.55;;
48629;SDS011;34426;52.180;4.462;2023-04-06T04:20:10;24.92;;;17.15;;
48629;SDS011;34426;52.180;4.462;2023-04-06T04:22:35;24.95;;;18.02;;
48629;SDS011;34426;52.180;4.462;2023-04-06T04:25:01;26.70;;;16.88;;
48629;SDS011;34426;52.180;4.462;2023-04-06T04:27:26;25.17;;;17.30;;
48629;SDS011;34426;52.180;4.462;2023-04-06T04:29:53;26.35;;;17.20;;
48629;SDS011;34426;52.180;4.462;2023-04-06T04:32:19;28.52;;;16.95;;
48629;SDS011;34426;52.180;4.462;2023-04-06T04:34:44;26.02;;;16.60;;
48629;SDS011;34426;52.180;4.462;2023-04-06T04:37:10;27.17;;;17.10;;
48629;SDS011;34426;52.180;4.462;2023-04-06T04:39:35;27.80;;;16.02;;
48629;SDS011;34426;52.180;4.462;2023-04-06T04:42:00;30.02;;;17.73;;
48629;SDS011;34426;52.180;4.462;2023-04-06T04:44:26;24.00;;;16.83;;
48629;SDS011;34426;52.180;4.462;2023-04-06T04:46:53;23.08;;;17.25;;
48629;SDS011;34426;52.180;4.462;2023-04-06T04:49:18;24.80;;;16.88;;
48629;SDS011;34426;52.180;4.462;2023-04-06T04:51:44;24.52;;;18.08;;
48629;SDS011;34426;52.180;4.462;2023-04-06T04:54:09;26.65;;;18.08;;
48629;SDS011;34426;52.180;4.462;2023-04-06T04:56:35;28.08;;;18.13;;
48629;SDS011;34426;52.180;4.462;2023-04-06T04:59:00;28.23;;;17.50;;
48629;SDS011;34426;52.180;4.462;2023-04-06T05:01:25;26.30;;;18.27;;
48629;SDS011;34426;52.180;4.462;2023-04-06T05:03:52;28.02;;;18.00;;
48629;SDS011;34426;52.180;4.462;2023-04-06T05:06:19;26.33;;;18.17;;
48629;SDS011;34426;52.180;4.462;2023-04-06T05:08:44;29.15;;;19.60;;
48629;SDS011;34426;52.180;4.462;2023-04-06T05:11:10;28.23;;;19.33;;
48629;SDS011;34426;52.180;4.462;2023-04-06T05:13:35;33.60;;;19.70;;
48629;SDS011;34426;52.180;4.462;2023-04-06T05:16:01;28.67;;;19.05;;
48629;SDS011;34426;52.180;4.462;2023-04-06T05:18:26;27.95;;;19.50;;
48629;SDS011;34426;52.180;4.462;2023-04-06T05:20:53;29.58;;;20.98;;
48629;SDS011;34426;52.180;4.462;2023-04-06T05:23:19;28.38;;;19.15;;
48629;SDS011;34426;52.180;4.462;2023-04-06T05:25:44;30.88;;;20.35;;
48629;SDS011;34426;52.180;4.462;2023-04-06T05:28:13;31.77;;;20.83;;
48629;SDS011;34426;52.180;4.462;2023-04-06T05:30:39;32.92;;;20.98;;
48629;SDS011;34426;52.180;4.462;2023-04-06T05:33:04;35.28;;;21.70;;
48629;SDS011;34426;52.180;4.462;2023-04-06T05:35:30;32.40;;;20.77;;
48629;SDS011;34426;52.180;4.462;2023-04-06T05:37:56;29.38;;;20.73;;
48629;SDS011;34426;52.180;4.462;2023-04-06T05:40:22;32.60;;;21.80;;
48629;SDS011;34426;52.180;4.462;2023-04-06T05:42:47;31.55;;;22.00;;
48629;SDS011;34426;52.180;4.462;2023-04-06T05:45:13;29.80;;;21.45;;
48629;SDS011;34426;52.180;4.462;2023-04-06T05:47:39;34.08;;;22.98;;
48629;SDS011;34426;52.180;4.462;2023-04-06T05:50:05;38.10;;;23.83;;
48629;SDS011;34426;52.180;4.462;2023-04-06T05:52:30;33.25;;;23.40;;
48629;SDS011;34426;52.180;4.462;2023-04-06T05:54:57;36.72;;;24.63;;
48629;SDS011;34426;52.180;4.462;2023-04-06T05:57:23;36.08;;;24.75;;
48629;SDS011;34426;52.180;4.462;2023-04-06T05:59:49;38.40;;;25.65;;
48629;SDS011;34426;52.180;4.462;2023-04-06T06:02:14;41.63;;;28.00;;
48629;SDS011;34426;52.180;4.462;2023-04-06T06:04:39;39.63;;;25.67;;
48629;SDS011;34426;52.180;4.462;2023-04-06T06:07:05;40.47;;;26.80;;
48629;SDS011;34426;52.180;4.462;2023-04-06T06:09:30;41.22;;;26.98;;
48629;SDS011;34426;52.180;4.462;2023-04-06T06:11:58;44.58;;;27.45;;
48629;SDS011;34426;52.180;4.462;2023-04-06T06:14:24;39.47;;;27.80;;
48629;SDS011;34426;52.180;4.462;2023-04-06T06:16:49;53.10;;;30.75;;
48629;SDS011;34426;52.180;4.462;2023-04-06T06:19:15;46.67;;;29.80;;
48629;SDS011;34426;52.180;4.462;2023-04-06T06:21:40;40.13;;;28.90;;
48629;SDS011;34426;52.180;4.462;2023-04-06T06:24:06;42.40;;;29.90;;
48629;SDS011;34426;52.180;4.462;2023-04-06T06:26:32;51.55;;;31.35;;
48629;SDS011;34426;52.180;4.462;2023-04-06T06:28:59;45.35;;;30.40;;
48629;SDS011;34426;52.180;4.462;2023-04-06T06:31:24;48.55;;;30.55;;
48629;SDS011;34426;52.180;4.462;2023-04-06T06:33:50;44.38;;;31.77;;
48629;SDS011;34426;52.180;4.462;2023-04-06T06:36:15;43.83;;;32.03;;
48629;SDS011;34426;52.180;4.462;2023-04-06T06:38:41;45.92;;;30.83;;
48629;SDS011;34426;52.180;4.462;2023-04-06T06:41:06;42.83;;;30.75;;
48629;SDS011;34426;52.180;4.462;2023-04-06T06:43:32;42.83;;;30.92;;
48629;SDS011;34426;52.180;4.462;2023-04-06T06:45:59;43.00;;;31.85;;
48629;SDS011;34426;52.180;4.462;2023-04-06T06:48:24;49.55;;;33.42;;
48629;SDS011;34426;52.180;4.462;2023-04-06T06:50:50;51.83;;;33.55;;
48629;SDS011;34426;52.180;4.462;2023-04-06T06:53:15;44.35;;;31.20;;
48629;SDS011;34426;52.180;4.462;2023-04-06T06:55:41;47.33;;;32.88;;
48629;SDS011;34426;52.180;4.462;2023-04-06T06:58:06;44.65;;;31.55;;
48629;SDS011;34426;52.180;4.462;2023-04-06T07:00:34;45.60;;;31.98;;
48629;SDS011;34426;52.180;4.462;2023-04-06T07:03:01;54.10;;;32.97;;
48629;SDS011;34426;52.180;4.462;2023-04-06T07:05:27;50.67;;;32.47;;
48629;SDS011;34426;52.180;4.462;2023-04-06T07:07:52;49.08;;;32.92;;
48629;SDS011;34426;52.180;4.462;2023-04-06T07:10:18;46.95;;;33.83;;
48629;SDS011;34426;52.180;4.462;2023-04-06T07:12:43;50.80;;;31.67;;
48629;SDS011;34426;52.180;4.462;2023-04-06T07:15:09;49.67;;;33.22;;
48629;SDS011;34426;52.180;4.462;2023-04-06T07:17:35;50.70;;;34.03;;
48629;SDS011;34426;52.180;4.462;2023-04-06T07:20:02;48.75;;;32.15;;
48629;SDS011;34426;52.180;4.462;2023-04-06T07:22:28;49.85;;;33.00;;
48629;SDS011;34426;52.180;4.462;2023-04-06T07:24:53;54.40;;;33.13;;
48629;SDS011;34426;52.180;4.462;2023-04-06T07:27:19;43.22;;;32.70;;
48629;SDS011;34426;52.180;4.462;2023-04-06T07:29:44;43.53;;;33.17;;
48629;SDS011;34426;52.180;4.462;2023-04-06T07:32:12;47.05;;;32.63;;
48629;SDS011;34426;52.180;4.462;2023-04-06T07:34:37;44.45;;;33.50;;
48629;SDS011;34426;52.180;4.462;2023-04-06T07:37:04;48.13;;;32.80;;
48629;SDS011;34426;52.180;4.462;2023-04-06T07:39:30;48.47;;;34.13;;
48629;SDS011;34426;52.180;4.462;2023-04-06T07:41:58;45.47;;;32.95;;
48629;SDS011;34426;52.180;4.462;2023-04-06T07:44:24;46.72;;;32.67;;
48629;SDS011;34426;52.180;4.462;2023-04-06T07:46:49;46.63;;;32.75;;
48629;SDS011;34426;52.180;4.462;2023-04-06T07:49:17;46.90;;;32.47;;
48629;SDS011;34426;52.180;4.462;2023-04-06T07:51:42;49.72;;;32.20;;
48629;SDS011;34426;52.180;4.462;2023-04-06T07:54:09;45.85;;;32.13;;
48629;SDS011;34426;52.180;4.462;2023-04-06T07:56:35;43.05;;;31.05;;
48629;SDS011;34426;52.180;4.462;2023-04-06T07:59:00;44.50;;;30.85;;
48629;SDS011;34426;52.180;4.462;2023-04-06T08:01:27;41.67;;;29.52;;
48629;SDS011;34426;52.180;4.462;2023-04-06T08:03:52;43.80;;;30.70;;
48629;SDS011;34426;52.180;4.462;2023-04-06T08:06:18;43.50;;;30.67;;
48629;SDS011;34426;52.180;4.462;2023-04-06T08:08:46;41.25;;;30.10;;
48629;SDS011;34426;52.180;4.462;2023-04-06T08:11:13;47.60;;;31.25;;
48629;SDS011;34426;52.180;4.462;2023-04-06T08:13:38;38.95;;;29.10;;
48629;SDS011;34426;52.180;4.462;2023-04-06T08:16:04;39.47;;;30.02;;
48629;SDS011;34426;52.180;4.462;2023-04-06T08:18:30;41.50;;;29.33;;
48629;SDS011;34426;52.180;4.462;2023-04-06T08:20:55;42.70;;;30.30;;
48629;SDS011;34426;52.180;4.462;2023-04-06T08:23:21;41.20;;;29.23;;
48629;SDS011;34426;52.180;4.462;2023-04-06T08:25:47;43.15;;;30.02;;
48629;SDS011;34426;52.180;4.462;2023-04-06T08:28:13;44.75;;;28.63;;
48629;SDS011;34426;52.180;4.462;2023-04-06T08:30:39;40.17;;;25.10;;
48629;SDS011;34426;52.180;4.462;2023-04-06T08:33:05;29.30;;;20.08;;
48629;SDS011;34426;52.180;4.462;2023-04-06T08:35:31;27.98;;;19.50;;
48629;SDS011;34426;52.180;4.462;2023-04-06T08:37:56;25.80;;;19.20;;
48629;SDS011;34426;52.180;4.462;2023-04-06T08:40:22;24.70;;;18.73;;
48629;SDS011;34426;52.180;4.462;2023-04-06T08:42:49;23.73;;;18.50;;
48629;SDS011;34426;52.180;4.462;2023-04-06T08:45:20;27.02;;;19.17;;
48629;SDS011;34426;52.180;4.462;2023-04-06T08:47:46;26.30;;;20.40;;
48629;SDS011;34426;52.180;4.462;2023-04-06T08:50:12;30.27;;;21.67;;
48629;SDS011;34426;52.180;4.462;2023-04-06T08:52:38;33.17;;;24.50;;
48629;SDS011;34426;52.180;4.462;2023-04-06T08:55:05;41.60;;;26.90;;
48629;SDS011;34426;52.180;4.462;2023-04-06T08:57:31;40.58;;;28.90;;
48629;SDS011;34426;52.180;4.462;2023-04-06T08:59:57;40.17;;;26.33;;
48629;SDS011;34426;52.180;4.462;2023-04-06T09:02:26;35.88;;;26.40;;
48629;SDS011;34426;52.180;4.462;2023-04-06T09:04:52;38.25;;;27.30;;
48629;SDS011;34426;52.180;4.462;2023-04-06T09:07:18;31.13;;;24.00;;
48629;SDS011;34426;52.180;4.462;2023-04-06T09:09:44;38.00;;;25.58;;
48629;SDS011;34426;52.180;4.462;2023-04-06T09:12:10;36.72;;;23.83;;
48629;SDS011;34426;52.180;4.462;2023-04-06T09:14:36;33.22;;;22.17;;
48629;SDS011;34426;52.180;4.462;2023-04-06T09:17:02;28.65;;;19.45;;
48629;SDS011;34426;52.180;4.462;2023-04-06T09:19:29;24.40;;;15.70;;
48629;SDS011;34426;52.180;4.462;2023-04-06T09:22:00;18.70;;;12.57;;
48629;SDS011;34426;52.180;4.462;2023-04-06T09:26:52;20.60;;;12.20;;
48629;SDS011;34426;52.180;4.462;2023-04-06T09:29:24;20.88;;;11.95;;
48629;SDS011;34426;52.180;4.462;2023-04-06T09:31:50;19.50;;;11.10;;
48629;SDS011;34426;52.180;4.462;2023-04-06T09:34:21;16.33;;;9.75;;
48629;SDS011;34426;52.180;4.462;2023-04-06T09:36:48;19.45;;;10.55;;
48629;SDS011;34426;52.180;4.462;2023-04-06T09:39:13;19.73;;;10.57;;
48629;SDS011;34426;52.180;4.462;2023-04-06T09:41:38;20.48;;;11.85;;
48629;SDS011;34426;52.180;4.462;2023-04-06T09:44:04;17.15;;;10.98;;
48629;SDS011;34426;52.180;4.462;2023-04-06T09:46:31;18.25;;;11.70;;
48629;SDS011;34426;52.180;4.462;2023-04-06T09:48:58;19.65;;;12.15;;
48629;SDS011;34426;52.180;4.462;2023-04-06T09:51:25;17.33;;;10.70;;
48629;SDS011;34426;52.180;4.462;2023-04-06T09:53:55;18.50;;;10.57;;
48629;SDS011;34426;52.180;4.462;2023-04-06T09:56:23;18.10;;;10.38;;
48629;SDS011;34426;52.180;4.462;2023-04-06T09:58:53;20.10;;;10.15;;
48629;SDS011;34426;52.180;4.462;2023-04-06T10:01:22;13.43;;;9.70;;
48629;SDS011;34426;52.180;4.462;2023-04-06T10:03:55;17.15;;;10.15;;
48629;SDS011;34426;52.180;4.462;2023-04-06T10:06:27;16.97;;;10.37;;
48629;SDS011;34426;52.180;4.462;2023-04-06T10:08:56;14.77;;;10.18;;
48629;SDS011;34426;52.180;4.462;2023-04-06T10:11:22;13.88;;;9.75;;
48629;SDS011;34426;52.180;4.462;2023-04-06T10:13:48;14.60;;;10.40;;
48629;SDS011;34426;52.180;4.462;2023-04-06T10:16:14;15.27;;;11.00;;
48629;SDS011;34426;52.180;4.462;2023-04-06T10:18:41;15.90;;;11.10;;
48629;SDS011;34426;52.180;4.462;2023-04-06T10:21:12;13.02;;;9.88;;
48629;SDS011;34426;52.180;4.462;2023-04-06T10:23:43;15.52;;;10.85;;
48629;SDS011;34426;52.180;4.462;2023-04-06T10:26:14;15.68;;;10.85;;
48629;SDS011;34426;52.180;4.462;2023-04-06T10:28:44;15.05;;;11.15;;
48629;SDS011;34426;52.180;4.462;2023-04-06T10:31:11;15.80;;;11.63;;
48629;SDS011;34426;52.180;4.462;2023-04-06T10:33:36;19.35;;;11.90;;
48629;SDS011;34426;52.180;4.462;2023-04-06T10:36:11;15.07;;;11.38;;
48629;SDS011;34426;52.180;4.462;2023-04-06T10:38:37;19.02;;;11.30;;
48629;SDS011;34426;52.180;4.462;2023-04-06T10:41:04;16.90;;;11.98;;
48629;SDS011;34426;52.180;4.462;2023-04-06T10:43:32;18.58;;;12.00;;
48629;SDS011;34426;52.180;4.462;2023-04-06T10:45:59;18.73;;;12.63;;
48629;SDS011;34426;52.180;4.462;2023-04-06T10:48:35;16.60;;;12.15;;
48629;SDS011;34426;52.180;4.462;2023-04-06T10:51:01;15.57;;;11.68;;
48629;SDS011;34426;52.180;4.462;2023-04-06T10:53:33;17.88;;;12.02;;
48629;SDS011;34426;52.180;4.462;2023-04-06T10:55:59;21.42;;;11.98;;
48629;SDS011;34426;52.180;4.462;2023-04-06T10:58:26;13.43;;;11.93;;
48629;SDS011;34426;52.180;4.462;2023-04-06T11:00:54;14.38;;;12.15;;
48629;SDS011;34426;52.180;4.462;2023-04-06T11:03:19;15.55;;;12.32;;
48629;SDS011;34426;52.180;4.462;2023-04-06T11:05:45;14.43;;;10.85;;
48629;SDS011;34426;52.180;4.462;2023-04-06T11:08:21;16.92;;;11.80;;
48629;SDS011;34426;52.180;4.462;2023-04-06T11:10:47;14.80;;;11.85;;
48629;SDS011;34426;52.180;4.462;2023-04-06T11:13:12;16.90;;;12.30;;
48629;SDS011;34426;52.180;4.462;2023-04-06T11:15:38;18.55;;;12.23;;
48629;SDS011;34426;52.180;4.462;2023-04-06T11:18:06;17.83;;;11.68;;
48629;SDS011;34426;52.180;4.462;2023-04-06T11:20:31;17.13;;;11.35;;
48629;SDS011;34426;52.180;4.462;2023-04-06T11:22:57;16.05;;;11.80;;
48629;SDS011;34426;52.180;4.462;2023-04-06T11:25:22;14.30;;;11.30;;
48629;SDS011;34426;52.180;4.462;2023-04-06T11:27:48;15.40;;;11.57;;
48629;SDS011;34426;52.180;4.462;2023-04-06T11:30:14;14.80;;;10.93;;
48629;SDS011;34426;52.180;4.462;2023-04-06T11:32:40;16.25;;;12.35;;
48629;SDS011;34426;52.180;4.462;2023-04-06T11:35:08;14.20;;;11.02;;
48629;SDS011;34426;52.180;4.462;2023-04-06T11:37:36;13.65;;;11.18;;
48629;SDS011;34426;52.180;4.462;2023-04-06T11:40:01;16.17;;;10.55;;
48629;SDS011;34426;52.180;4.462;2023-04-06T11:42:27;12.25;;;9.75;;
48629;SDS011;34426;52.180;4.462;2023-04-06T11:44:54;12.63;;;10.18;;
48629;SDS011;34426;52.180;4.462;2023-04-06T11:47:26;11.27;;;10.18;;
48629;SDS011;34426;52.180;4.462;2023-04-06T11:49:52;12.20;;;10.05;;
48629;SDS011;34426;52.180;4.462;2023-04-06T11:52:20;11.98;;;10.40;;
48629;SDS011;34426;52.180;4.462;2023-04-06T11:54:47;12.32;;;9.82;;
48629;SDS011;34426;52.180;4.462;2023-04-06T11:57:14;11.05;;;9.65;;
48629;SDS011;34426;52.180;4.462;2023-04-06T11:59:43;10.88;;;9.77;;
48629;SDS011;34426;52.180;4.462;2023-04-06T12:02:09;11.68;;;9.65;;
48629;SDS011;34426;52.180;4.462;2023-04-06T12:04:35;12.85;;;10.05;;
48629;SDS011;34426;52.180;4.462;2023-04-06T12:07:01;11.50;;;10.20;;
48629;SDS011;34426;52.180;4.462;2023-04-06T12:09:28;15.00;;;10.73;;
48629;SDS011;34426;52.180;4.462;2023-04-06T12:11:53;12.38;;;10.00;;
48629;SDS011;34426;52.180;4.462;2023-04-06T12:14:19;15.43;;;10.25;;
48629;SDS011;34426;52.180;4.462;2023-04-06T12:16:44;12.15;;;9.77;;
48629;SDS011;34426;52.180;4.462;2023-04-06T12:19:10;14.95;;;10.40;;
48629;SDS011;34426;52.180;4.462;2023-04-06T12:21:35;12.48;;;10.15;;
48629;SDS011;34426;52.180;4.462;2023-04-06T12:24:01;12.77;;;9.55;;
48629;SDS011;34426;52.180;4.462;2023-04-06T12:26:28;12.18;;;9.80;;
48629;SDS011;34426;52.180;4.462;2023-04-06T12:28:54;12.63;;;9.48;;
48629;SDS011;34426;52.180;4.462;2023-04-06T12:31:20;17.33;;;10.25;;
48629;SDS011;34426;52.180;4.462;2023-04-06T12:33:47;13.75;;;10.05;;
48629;SDS011;34426;52.180;4.462;2023-04-06T12:36:13;11.70;;;9.85;;
48629;SDS011;34426;52.180;4.462;2023-04-06T12:38:39;14.57;;;9.50;;
48629;SDS011;34426;52.180;4.462;2023-04-06T12:41:06;11.38;;;10.18;;
48629;SDS011;34426;52.180;4.462;2023-04-06T12:43:33;11.55;;;9.95;;
48629;SDS011;34426;52.180;4.462;2023-04-06T12:45:58;12.73;;;10.05;;
48629;SDS011;34426;52.180;4.462;2023-04-06T12:48:24;14.68;;;10.23;;
48629;SDS011;34426;52.180;4.462;2023-04-06T12:50:53;11.38;;;9.77;;
48629;SDS011;34426;52.180;4.462;2023-04-06T12:53:19;10.30;;;9.13;;
48629;SDS011;34426;52.180;4.462;2023-04-06T12:55:45;12.98;;;9.13;;
48629;SDS011;34426;52.180;4.462;2023-04-06T12:58:10;11.23;;;8.73;;
48629;SDS011;34426;52.180;4.462;2023-04-06T13:00:37;13.20;;;9.52;;
48629;SDS011;34426;52.180;4.462;2023-04-06T13:03:03;10.13;;;8.90;;
48629;SDS011;34426;52.180;4.462;2023-04-06T13:05:28;9.65;;;8.40;;
48629;SDS011;34426;52.180;4.462;2023-04-06T13:07:53;10.20;;;8.52;;
48629;SDS011;34426;52.180;4.462;2023-04-06T13:10:19;12.70;;;8.77;;
48629;SDS011;34426;52.180;4.462;2023-04-06T13:12:44;10.40;;;9.27;;
48629;SDS011;34426;52.180;4.462;2023-04-06T13:15:10;10.48;;;8.65;;
48629;SDS011;34426;52.180;4.462;2023-04-06T13:17:37;9.52;;;7.97;;
48629;SDS011;34426;52.180;4.462;2023-04-06T13:20:03;9.27;;;8.10;;
48629;SDS011;34426;52.180;4.462;2023-04-06T13:22:29;9.70;;;8.40;;
48629;SDS011;34426;52.180;4.462;2023-04-06T13:24:54;10.00;;;8.35;;
48629;SDS011;34426;52.180;4.462;2023-04-06T13:27:20;9.90;;;8.90;;
48629;SDS011;34426;52.180;4.462;2023-04-06T13:29:45;9.02;;;8.02;;
48629;SDS011;34426;52.180;4.462;2023-04-06T13:32:11;9.25;;;8.35;;
48629;SDS011;34426;52.180;4.462;2023-04-06T13:34:37;9.10;;;8.18;;
48629;SDS011;34426;52.180;4.462;2023-04-06T13:37:03;9.77;;;8.57;;
48629;SDS011;34426;52.180;4.462;2023-04-06T13:39:28;9.30;;;8.25;;
48629;SDS011;34426;52.180;4.462;2023-04-06T13:41:55;9.57;;;8.20;;
48629;SDS011;34426;52.180;4.462;2023-04-06T13:44:22;9.25;;;8.15;;
48629;SDS011;34426;52.180;4.462;2023-04-06T13:46:47;10.90;;;8.95;;
48629;SDS011;34426;52.180;4.462;2023-04-06T13:49:13;7.63;;;6.85;;
48629;SDS011;34426;52.180;4.462;2023-04-06T13:51:40;8.30;;;7.50;;
48629;SDS011;34426;52.180;4.462;2023-04-06T13:54:05;9.02;;;7.28;;
48629;SDS011;34426;52.180;4.462;2023-04-06T13:56:31;9.18;;;7.70;;
48629;SDS011;34426;52.180;4.462;2023-04-06T13:58:56;8.80;;;7.63;;
48629;SDS011;34426;52.180;4.462;2023-04-06T14:01:22;8.52;;;7.72;;
48629;SDS011;34426;52.180;4.462;2023-04-06T14:03:48;9.48;;;8.55;;
48629;SDS011;34426;52.180;4.462;2023-04-06T14:06:13;11.43;;;7.90;;
48629;SDS011;34426;52.180;4.462;2023-04-06T14:08:40;8.55;;;7.60;;
48629;SDS011;34426;52.180;4.462;2023-04-06T14:11:06;8.50;;;7.55;;
48629;SDS011;34426;52.180;4.462;2023-04-06T14:13:31;8.55;;;7.72;;
48629;SDS011;34426;52.180;4.462;2023-04-06T14:15:57;8.95;;;7.43;;
48629;SDS011;34426;52.180;4.462;2023-04-06T14:18:22;8.35;;;7.55;;